Terminal Aerodrome Forecast
Issued by NWS Topeka, KS

Home | Current Version | Previous Version | Graphics & Text | Print | Product List | Glossary On
Versions: 1 2 3 4 5 6 7 8 9 10 11 12 13 14 15 16
000
FTUS43 KTOP 251300 AAA
TAFTOP
TAF AMD
KTOP 251356Z 2514/2612 26009KT P6SM -SHRA BKN014
      TEMPO 2515/2518 SCT014 OVC040
     FM251800 33010KT P6SM BKN024
     FM260000 01009KT P6SM OVC015
     FM260800 04008KT P6SM OVC009=

USA.gov is the U.S. government's official web portal to all federal, state and local government web resources and services.